Historique des stations

Station météo de Chassignolles

Altitude de la station : 290 m







Données météorologiques pour le 17/01/2021
Date
Heure
Températures Humidité Point de rosée Vitesse
du vent
Direction Rafales Windchill Pression Pluviométrie
Cumul
Date
Heure
Températures Humidité Point de rosée Vitesse
du vent
Direction Rafales Windchill Pression Pluviométrie
Cumul
17/01/2021 13:596.3 °C81 %3.3 °C6 km/hNO26 km/h5.0 1027 hPa3.2 mm
17/01/2021 13:446.8 °C82 %3.9 °C8 km/hN23 km/h5.0 1027 hPa3.2 mm
17/01/2021 13:296.8 °C83 %3.9 °C5 km/hNO23 km/h6.1 1027 hPa3.2 mm
17/01/2021 13:146.9 °C85 %4.4 °C6 km/hNO23 km/h6.1 1027 hPa3.2 mm
17/01/2021 12:596.8 °C87 %5.0 °C3 km/hOSO23 km/h6.1 1027 hPa3.2 mm
17/01/2021 12:446.7 °C88 %5.0 °C13 km/hNNO23 km/h3.9 1027 hPa3.2 mm
17/01/2021 12:296.4 °C89 %5.0 °C5 km/hNNO23 km/h6.1 1027 hPa3.2 mm
17/01/2021 12:146.2 °C89 %4.4 °C3 km/hNNO23 km/h5.6 1027 hPa3.2 mm
17/01/2021 11:596.2 °C89 %4.4 °C5 km/hNNO23 km/h5.6 1027 hPa3.2 mm
17/01/2021 11:446.1 °C90 %4.4 °C3 km/hENE23 km/h5.6 1026 hPa3.2 mm
17/01/2021 11:295.6 °C90 %3.9 °C3 km/hNNO23 km/h5.0 1026 hPa3.2 mm
17/01/2021 11:145.7 °C92 %4.4 °C11 km/hE23 km/h2.8 1026 hPa3.2 mm
17/01/2021 10:595.3 °C93 %4.4 °C5 km/hE23 km/h5.0 1026 hPa3.2 mm
17/01/2021 10:444.9 °C94 %3.9 °C2 km/hONO23 km/h5.0 1026 hPa3.2 mm
17/01/2021 10:294.8 °C94 %3.9 °C5 km/hNO23 km/h4.4 1026 hPa3.2 mm
17/01/2021 10:144.7 °C94 %3.9 °C5 km/hNO23 km/h4.4 1026 hPa3.2 mm
17/01/2021 09:594.7 °C94 %3.9 °C6 km/hNO23 km/h3.9 1025 hPa3.2 mm
17/01/2021 09:444.6 °C94 %3.9 °C5 km/hONO23 km/h3.3 1025 hPa3.2 mm
17/01/2021 09:294.6 °C94 %3.9 °C3 km/hONO23 km/h3.3 1025 hPa3.2 mm
17/01/2021 09:144.6 °C94 %3.9 °C2 km/hNO23 km/h3.9 1025 hPa3.2 mm
17/01/2021 08:594.6 °C94 %3.9 °C6 km/hNO23 km/h2.8 1024 hPa2.8 mm
17/01/2021 08:444.7 °C94 %3.9 °C6 km/hNNO23 km/h2.8 1024 hPa2.8 mm
17/01/2021 08:294.7 °C94 %3.9 °C3 km/hNO23 km/h4.4 1024 hPa2.8 mm
17/01/2021 08:144.7 °C94 %3.9 °C3 km/hO23 km/h4.4 1024 hPa2.8 mm
17/01/2021 08:004.7 °C94 %3.9 °C5 km/hONO23 km/h3.3 1024 hPa2.8 mm
17/01/2021 07:454.7 °C94 %3.9 °C3 km/hNO23 km/h4.4 1024 hPa2.8 mm
17/01/2021 07:304.9 °C94 %3.9 °C5 km/hNO23 km/h4.4 1024 hPa2.8 mm
17/01/2021 07:145.1 °C94 %4.4 °C5 km/hONO23 km/h4.4 1023 hPa2.8 mm
17/01/2021 06:595.1 °C94 %4.4 °C5 km/hONO23 km/h4.4 1023 hPa2.8 mm
17/01/2021 06:445.1 °C94 %4.4 °C3 km/hNO23 km/h4.4 1023 hPa2.8 mm
17/01/2021 06:295.1 °C94 %4.4 °C2 km/hONO23 km/h5.0 1023 hPa2.8 mm
17/01/2021 06:145.1 °C94 %4.4 °C2 km/hNO23 km/h5.0 1023 hPa2.8 mm
17/01/2021 05:595.1 °C94 %4.4 °C5 km/hONO23 km/h4.4 1023 hPa2.8 mm
17/01/2021 05:445.2 °C94 %4.4 °C6 km/hONO23 km/h3.9 1023 hPa2.8 mm
17/01/2021 05:295.2 °C94 %4.4 °C3 km/hO23 km/h4.4 1023 hPa2.8 mm
17/01/2021 05:145.2 °C94 %4.4 °C10 km/hO23 km/h2.8 1023 hPa2.8 mm
17/01/2021 04:595.3 °C94 %4.4 °C6 km/hOSO23 km/h4.4 1023 hPa2.8 mm
17/01/2021 04:445.3 °C94 %4.4 °C2 km/hNO23 km/h5.6 1023 hPa2.8 mm
17/01/2021 04:295.3 °C94 %4.4 °C2 km/hO23 km/h5.6 1023 hPa2.8 mm
17/01/2021 04:145.3 °C94 %4.4 °C2 km/hNNO23 km/h5.6 1022 hPa2.8 mm
17/01/2021 03:595.4 °C94 %4.4 °C6 km/hOSO23 km/h4.4 1022 hPa2.8 mm
17/01/2021 03:435.4 °C94 %4.4 °C2 km/hOSO23 km/h5.6 1022 hPa2.8 mm
17/01/2021 03:295.4 °C94 %4.4 °C-OSO23 km/h5.6 1023 hPa2.8 mm
17/01/2021 03:145.4 °C94 %4.4 °C-O23 km/h5.6 1023 hPa2.8 mm
17/01/2021 02:595.4 °C94 %4.4 °C-OSO23 km/h5.6 1022 hPa2.8 mm
17/01/2021 02:445.4 °C94 %4.4 °C-NO23 km/h5.6 1022 hPa2.8 mm
17/01/2021 02:295.6 °C94 %4.4 °C2 km/hNO23 km/h5.6 1022 hPa2.8 mm
17/01/2021 02:145.7 °C94 %5.0 °C6 km/hNNO23 km/h4.4 1022 hPa2.8 mm
17/01/2021 01:595.8 °C93 %5.0 °C5 km/hO23 km/h5.6 1022 hPa2.8 mm
17/01/2021 01:446.1 °C94 %5.0 °C3 km/hNO23 km/h5.6 1022 hPa2.4 mm
17/01/2021 01:295.9 °C94 %5.0 °C5 km/hOSO23 km/h5.6 1022 hPa2 mm
17/01/2021 01:145.7 °C93 %5.0 °C3 km/hOSO23 km/h5.0 1022 hPa2 mm
17/01/2021 00:595.7 °C93 %5.0 °C5 km/hSO23 km/h5.0 1022 hPa2 mm
17/01/2021 00:445.8 °C93 %5.0 °C5 km/hOSO23 km/h5.0 1022 hPa2 mm
17/01/2021 00:295.9 °C93 %5.0 °C2 km/hNO23 km/h6.1 1022 hPa1.6 mm
17/01/2021 00:145.9 °C93 %5.0 °C18 km/hO23 km/h2.8 1022 hPa0.6 mm


Minima :

Température : 4.6 °C
Humidité : 81 %
Point de rosée : 3.3 °C
Vent moyen : 2 km/h
Windchill : 2.8
Pression atm. : 1022 hPa
Maxima :

Température : 6.9 °C
Humidité : 94 %
Point de rosée : 5.0 °C
Vent moyen : 18 km/h
Windchill : 6.1
Pression atm. : 1027 hPa
Rafales max : 26 km/h
Cumul de pluie sur 24H : 3.2 mm

Chassignolles est une commune du département Indre (36).
La station météorologique du réseau de l'association la plus proche de Chassignolles est celle de Beddes



Icône Facebook Association Météo Centre Icône Twitter Association Météo Centre Icône Chaîne Youtube Association Météo Centre Icône contact Association Météo Centre Icône Insta Association Météo Centre